sensor_id;sensor_type;location;lat;lon;timestamp;P1;durP1;ratioP1;P2;durP2;ratioP2
4616;SDS011;2321;42.704;23.384;2023-07-13T00:00:48;1028.73;;;766.73;;
4616;SDS011;2321;42.704;23.384;2023-07-13T00:03:15;1020.43;;;746.50;;
4616;SDS011;2321;42.704;23.384;2023-07-13T00:05:42;1066.23;;;795.33;;
4616;SDS011;2321;42.704;23.384;2023-07-13T00:08:09;1054.20;;;801.33;;
4616;SDS011;2321;42.704;23.384;2023-07-13T00:10:38;1059.37;;;828.20;;
4616;SDS011;2321;42.704;23.384;2023-07-13T00:13:07;1098.77;;;898.37;;
4616;SDS011;2321;42.704;23.384;2023-07-13T00:15:35;1066.53;;;836.70;;
4616;SDS011;2321;42.704;23.384;2023-07-13T00:18:02;1065.43;;;809.17;;
4616;SDS011;2321;42.704;23.384;2023-07-13T00:20:29;1038.33;;;785.57;;
4616;SDS011;2321;42.704;23.384;2023-07-13T00:22:57;1028.93;;;748.37;;
4616;SDS011;2321;42.704;23.384;2023-07-13T00:25:24;1071.73;;;881.13;;
4616;SDS011;2321;42.704;23.384;2023-07-13T00:27:53;1079.57;;;882.07;;
4616;SDS011;2321;42.704;23.384;2023-07-13T00:30:20;1028.27;;;749.50;;
4616;SDS011;2321;42.704;23.384;2023-07-13T00:32:48;1043.00;;;794.83;;
4616;SDS011;2321;42.704;23.384;2023-07-13T00:35:16;1049.37;;;806.20;;
4616;SDS011;2321;42.704;23.384;2023-07-13T00:37:43;1034.87;;;770.23;;
4616;SDS011;2321;42.704;23.384;2023-07-13T00:40:10;1048.83;;;799.43;;
4616;SDS011;2321;42.704;23.384;2023-07-13T00:42:38;1050.73;;;805.57;;
4616;SDS011;2321;42.704;23.384;2023-07-13T00:45:07;1035.50;;;760.00;;
4616;SDS011;2321;42.704;23.384;2023-07-13T00:48:14;1042.70;;;774.90;;
4616;SDS011;2321;42.704;23.384;2023-07-13T00:50:44;1068.57;;;860.83;;
4616;SDS011;2321;42.704;23.384;2023-07-13T00:53:15;1045.20;;;792.27;;
4616;SDS011;2321;42.704;23.384;2023-07-13T00:55:42;1042.23;;;788.73;;
4616;SDS011;2321;42.704;23.384;2023-07-13T00:58:09;1069.90;;;848.03;;
4616;SDS011;2321;42.704;23.384;2023-07-13T01:00:36;1045.80;;;782.23;;
4616;SDS011;2321;42.704;23.384;2023-07-13T01:03:05;1065.20;;;846.23;;
4616;SDS011;2321;42.704;23.384;2023-07-13T01:05:33;1096.30;;;927.27;;
4616;SDS011;2321;42.704;23.384;2023-07-13T01:08:02;1053.70;;;796.50;;
4616;SDS011;2321;42.704;23.384;2023-07-13T01:10:30;1033.80;;;742.93;;
4616;SDS011;2321;42.704;23.384;2023-07-13T01:13:04;1029.17;;;735.03;;
4616;SDS011;2321;42.704;23.384;2023-07-13T01:15:35;1025.77;;;719.63;;
4616;SDS011;2321;42.704;23.384;2023-07-13T01:18:04;1037.10;;;760.10;;
4616;SDS011;2321;42.704;23.384;2023-07-13T01:20:33;1075.33;;;791.10;;
4616;SDS011;2321;42.704;23.384;2023-07-13T01:23:04;1050.80;;;798.83;;
4616;SDS011;2321;42.704;23.384;2023-07-13T01:25:33;1021.77;;;718.13;;
4616;SDS011;2321;42.704;23.384;2023-07-13T01:28:00;1050.90;;;776.10;;
4616;SDS011;2321;42.704;23.384;2023-07-13T01:30:28;1056.50;;;802.90;;
4616;SDS011;2321;42.704;23.384;2023-07-13T01:32:56;1048.23;;;775.27;;
4616;SDS011;2321;42.704;23.384;2023-07-13T01:35:23;1046.93;;;761.70;;
4616;SDS011;2321;42.704;23.384;2023-07-13T01:37:52;1031.50;;;737.77;;
4616;SDS011;2321;42.704;23.384;2023-07-13T01:40:20;1045.60;;;769.90;;
4616;SDS011;2321;42.704;23.384;2023-07-13T01:42:47;1057.50;;;796.33;;
4616;SDS011;2321;42.704;23.384;2023-07-13T01:45:14;1025.70;;;726.10;;
4616;SDS011;2321;42.704;23.384;2023-07-13T01:47:41;1043.73;;;765.53;;
4616;SDS011;2321;42.704;23.384;2023-07-13T01:50:09;1052.93;;;800.03;;
4616;SDS011;2321;42.704;23.384;2023-07-13T01:52:36;1080.13;;;867.13;;
4616;SDS011;2321;42.704;23.384;2023-07-13T01:55:03;1071.80;;;840.87;;
4616;SDS011;2321;42.704;23.384;2023-07-13T01:57:32;1069.23;;;847.60;;
4616;SDS011;2321;42.704;23.384;2023-07-13T01:59:59;1090.87;;;899.77;;
4616;SDS011;2321;42.704;23.384;2023-07-13T02:02:26;1025.97;;;724.33;;
4616;SDS011;2321;42.704;23.384;2023-07-13T02:04:53;1029.47;;;718.87;;
4616;SDS011;2321;42.704;23.384;2023-07-13T02:07:19;1023.93;;;712.07;;
4616;SDS011;2321;42.704;23.384;2023-07-13T02:09:46;1028.73;;;724.83;;
4616;SDS011;2321;42.704;23.384;2023-07-13T02:12:13;1040.80;;;745.37;;
4616;SDS011;2321;42.704;23.384;2023-07-13T02:14:42;1071.07;;;830.07;;
4616;SDS011;2321;42.704;23.384;2023-07-13T02:17:09;1053.70;;;794.33;;
4616;SDS011;2321;42.704;23.384;2023-07-13T02:19:36;1046.00;;;772.20;;
4616;SDS011;2321;42.704;23.384;2023-07-13T02:22:03;1027.90;;;719.17;;
4616;SDS011;2321;42.704;23.384;2023-07-13T02:24:30;1121.20;;;921.80;;
4616;SDS011;2321;42.704;23.384;2023-07-13T02:26:57;1060.10;;;796.23;;
4616;SDS011;2321;42.704;23.384;2023-07-13T02:29:24;1022.43;;;709.33;;
4616;SDS011;2321;42.704;23.384;2023-07-13T02:31:52;1044.03;;;771.13;;
4616;SDS011;2321;42.704;23.384;2023-07-13T02:34:19;1036.23;;;747.23;;
4616;SDS011;2321;42.704;23.384;2023-07-13T02:36:46;1061.20;;;729.63;;
4616;SDS011;2321;42.704;23.384;2023-07-13T02:39:13;1039.40;;;746.13;;
4616;SDS011;2321;42.704;23.384;2023-07-13T02:41:40;1027.90;;;725.90;;
4616;SDS011;2321;42.704;23.384;2023-07-13T02:44:07;1029.37;;;732.93;;
4616;SDS011;2321;42.704;23.384;2023-07-13T02:46:35;1044.20;;;737.70;;
4616;SDS011;2321;42.704;23.384;2023-07-13T02:49:04;1037.40;;;770.27;;
4616;SDS011;2321;42.704;23.384;2023-07-13T02:51:31;1030.43;;;742.50;;
4616;SDS011;2321;42.704;23.384;2023-07-13T02:53:59;1044.73;;;769.73;;
4616;SDS011;2321;42.704;23.384;2023-07-13T02:56:27;1051.17;;;785.33;;
4616;SDS011;2321;42.704;23.384;2023-07-13T02:58:55;1061.23;;;764.73;;
4616;SDS011;2321;42.704;23.384;2023-07-13T03:01:22;1036.50;;;726.93;;
4616;SDS011;2321;42.704;23.384;2023-07-13T03:03:50;1053.53;;;771.17;;
4616;SDS011;2321;42.704;23.384;2023-07-13T03:06:19;1065.13;;;793.83;;
4616;SDS011;2321;42.704;23.384;2023-07-13T03:08:48;1084.67;;;830.00;;
4616;SDS011;2321;42.704;23.384;2023-07-13T03:11:16;1030.73;;;727.97;;
4616;SDS011;2321;42.704;23.384;2023-07-13T03:13:44;1041.43;;;752.10;;
4616;SDS011;2321;42.704;23.384;2023-07-13T03:16:12;1034.87;;;748.07;;
4616;SDS011;2321;42.704;23.384;2023-07-13T03:18:41;1122.70;;;797.60;;
4616;SDS011;2321;42.704;23.384;2023-07-13T03:21:08;1042.77;;;719.43;;
4616;SDS011;2321;42.704;23.384;2023-07-13T03:23:36;1068.27;;;756.73;;
4616;SDS011;2321;42.704;23.384;2023-07-13T03:26:04;1088.60;;;798.93;;
4616;SDS011;2321;42.704;23.384;2023-07-13T03:28:32;1033.57;;;717.43;;
4616;SDS011;2321;42.704;23.384;2023-07-13T03:31:00;1063.40;;;791.03;;
4616;SDS011;2321;42.704;23.384;2023-07-13T03:33:27;1030.97;;;713.40;;
4616;SDS011;2321;42.704;23.384;2023-07-13T03:35:54;1050.77;;;744.40;;
4616;SDS011;2321;42.704;23.384;2023-07-13T03:38:21;1050.67;;;780.13;;
4616;SDS011;2321;42.704;23.384;2023-07-13T03:40:49;1025.20;;;703.77;;
4616;SDS011;2321;42.704;23.384;2023-07-13T03:43:17;1032.27;;;724.10;;
4616;SDS011;2321;42.704;23.384;2023-07-13T03:45:45;1056.80;;;767.40;;
4616;SDS011;2321;42.704;23.384;2023-07-13T03:48:12;1038.47;;;759.30;;
4616;SDS011;2321;42.704;23.384;2023-07-13T03:50:39;1012.23;;;685.10;;
4616;SDS011;2321;42.704;23.384;2023-07-13T03:53:06;1032.83;;;750.73;;
4616;SDS011;2321;42.704;23.384;2023-07-13T03:55:33;1036.63;;;759.23;;
4616;SDS011;2321;42.704;23.384;2023-07-13T04:00:57;1061.97;;;779.60;;
4616;SDS011;2321;42.704;23.384;2023-07-13T04:03:25;1071.10;;;763.27;;
4616;SDS011;2321;42.704;23.384;2023-07-13T04:05:53;1105.93;;;759.40;;
4616;SDS011;2321;42.704;23.384;2023-07-13T04:08:25;1049.60;;;756.20;;
4616;SDS011;2321;42.704;23.384;2023-07-13T04:10:53;1066.90;;;800.00;;
4616;SDS011;2321;42.704;23.384;2023-07-13T04:13:21;1076.57;;;843.27;;
4616;SDS011;2321;42.704;23.384;2023-07-13T04:15:48;1056.77;;;787.40;;
4616;SDS011;2321;42.704;23.384;2023-07-13T04:18:15;1036.93;;;745.43;;
4616;SDS011;2321;42.704;23.384;2023-07-13T04:20:42;1044.33;;;775.63;;
4616;SDS011;2321;42.704;23.384;2023-07-13T04:23:09;1038.93;;;768.13;;
4616;SDS011;2321;42.704;23.384;2023-07-13T04:25:36;1026.90;;;728.90;;
4616;SDS011;2321;42.704;23.384;2023-07-13T04:28:03;1044.00;;;763.10;;
4616;SDS011;2321;42.704;23.384;2023-07-13T04:30:31;1061.80;;;807.97;;
4616;SDS011;2321;42.704;23.384;2023-07-13T04:32:58;1089.03;;;824.83;;
4616;SDS011;2321;42.704;23.384;2023-07-13T04:35:25;1079.33;;;834.80;;
4616;SDS011;2321;42.704;23.384;2023-07-13T04:37:52;1121.60;;;906.23;;
4616;SDS011;2321;42.704;23.384;2023-07-13T04:40:19;1122.27;;;841.37;;
4616;SDS011;2321;42.704;23.384;2023-07-13T04:42:46;1150.17;;;834.73;;
4616;SDS011;2321;42.704;23.384;2023-07-13T04:45:14;1139.77;;;809.20;;
4616;SDS011;2321;42.704;23.384;2023-07-13T04:47:43;1103.93;;;597.60;;
4616;SDS011;2321;42.704;23.384;2023-07-13T04:50:12;1118.43;;;802.97;;
4616;SDS011;2321;42.704;23.384;2023-07-13T04:52:40;1115.33;;;877.37;;
4616;SDS011;2321;42.704;23.384;2023-07-13T04:55:08;1094.03;;;872.17;;
4616;SDS011;2321;42.704;23.384;2023-07-13T04:57:34;1086.27;;;837.00;;
4616;SDS011;2321;42.704;23.384;2023-07-13T05:00:02;1103.17;;;836.60;;
4616;SDS011;2321;42.704;23.384;2023-07-13T05:02:32;1121.27;;;896.27;;
4616;SDS011;2321;42.704;23.384;2023-07-13T05:05:00;1097.40;;;868.30;;
4616;SDS011;2321;42.704;23.384;2023-07-13T05:07:28;1063.00;;;821.30;;
4616;SDS011;2321;42.704;23.384;2023-07-13T05:09:57;1073.23;;;803.30;;
4616;SDS011;2321;42.704;23.384;2023-07-13T05:12:25;1083.20;;;874.87;;
4616;SDS011;2321;42.704;23.384;2023-07-13T05:14:51;1080.33;;;835.20;;
4616;SDS011;2321;42.704;23.384;2023-07-13T05:17:18;1076.40;;;850.03;;
4616;SDS011;2321;42.704;23.384;2023-07-13T05:19:45;1131.03;;;891.23;;
4616;SDS011;2321;42.704;23.384;2023-07-13T05:22:13;1124.80;;;830.57;;
4616;SDS011;2321;42.704;23.384;2023-07-13T05:24:40;1108.90;;;821.50;;
4616;SDS011;2321;42.704;23.384;2023-07-13T05:27:07;1133.33;;;831.63;;
4616;SDS011;2321;42.704;23.384;2023-07-13T05:29:34;1136.27;;;870.77;;
4616;SDS011;2321;42.704;23.384;2023-07-13T05:32:01;1098.33;;;898.60;;
4616;SDS011;2321;42.704;23.384;2023-07-13T05:34:28;1092.33;;;884.37;;
4616;SDS011;2321;42.704;23.384;2023-07-13T05:36:55;1072.53;;;807.63;;
4616;SDS011;2321;42.704;23.384;2023-07-13T05:39:23;1112.53;;;865.40;;
4616;SDS011;2321;42.704;23.384;2023-07-13T05:41:51;1135.57;;;934.10;;
4616;SDS011;2321;42.704;23.384;2023-07-13T05:44:18;1134.37;;;921.37;;
4616;SDS011;2321;42.704;23.384;2023-07-13T05:46:45;1114.53;;;835.13;;
4616;SDS011;2321;42.704;23.384;2023-07-13T05:49:12;1095.13;;;823.30;;
4616;SDS011;2321;42.704;23.384;2023-07-13T05:51:38;1136.80;;;913.60;;
4616;SDS011;2321;42.704;23.384;2023-07-13T05:54:05;1152.60;;;928.97;;
4616;SDS011;2321;42.704;23.384;2023-07-13T05:56:33;1107.67;;;835.83;;
4616;SDS011;2321;42.704;23.384;2023-07-13T05:59:00;1148.90;;;916.17;;
4616;SDS011;2321;42.704;23.384;2023-07-13T06:01:27;1134.97;;;918.97;;
4616;SDS011;2321;42.704;23.384;2023-07-13T06:03:56;1098.53;;;835.67;;
4616;SDS011;2321;42.704;23.384;2023-07-13T06:06:23;1147.93;;;959.63;;
4616;SDS011;2321;42.704;23.384;2023-07-13T06:08:49;1113.63;;;928.47;;
4616;SDS011;2321;42.704;23.384;2023-07-13T06:11:18;1122.50;;;931.00;;
4616;SDS011;2321;42.704;23.384;2023-07-13T06:13:47;1075.43;;;868.50;;
4616;SDS011;2321;42.704;23.384;2023-07-13T06:16:15;1120.83;;;929.27;;
4616;SDS011;2321;42.704;23.384;2023-07-13T06:18:42;1131.57;;;910.30;;
4616;SDS011;2321;42.704;23.384;2023-07-13T06:21:10;1104.73;;;936.73;;
4616;SDS011;2321;42.704;23.384;2023-07-13T06:23:38;1093.87;;;932.03;;
4616;SDS011;2321;42.704;23.384;2023-07-13T06:26:05;1117.60;;;982.53;;
4616;SDS011;2321;42.704;23.384;2023-07-13T06:28:34;1113.07;;;985.73;;
4616;SDS011;2321;42.704;23.384;2023-07-13T06:31:04;1092.13;;;917.77;;
4616;SDS011;2321;42.704;23.384;2023-07-13T06:33:31;1098.97;;;969.77;;
4616;SDS011;2321;42.704;23.384;2023-07-13T06:35:58;1068.47;;;878.70;;
4616;SDS011;2321;42.704;23.384;2023-07-13T06:38:25;1109.90;;;955.53;;
4616;SDS011;2321;42.704;23.384;2023-07-13T06:40:52;1070.80;;;875.47;;
4616;SDS011;2321;42.704;23.384;2023-07-13T06:43:19;1141.20;;;995.43;;
4616;SDS011;2321;42.704;23.384;2023-07-13T06:45:47;1156.87;;;999.90;;
4616;SDS011;2321;42.704;23.384;2023-07-13T06:48:17;1112.47;;;957.77;;
4616;SDS011;2321;42.704;23.384;2023-07-13T06:50:45;1083.77;;;889.20;;
4616;SDS011;2321;42.704;23.384;2023-07-13T06:53:12;1117.03;;;944.93;;
4616;SDS011;2321;42.704;23.384;2023-07-13T06:55:39;1108.07;;;961.80;;
4616;SDS011;2321;42.704;23.384;2023-07-13T06:58:06;1080.70;;;913.00;;
4616;SDS011;2321;42.704;23.384;2023-07-13T07:00:33;1109.17;;;909.07;;
4616;SDS011;2321;42.704;23.384;2023-07-13T07:03:00;1114.80;;;963.03;;
4616;SDS011;2321;42.704;23.384;2023-07-13T07:05:28;1116.10;;;979.33;;
4616;SDS011;2321;42.704;23.384;2023-07-13T07:07:55;1129.67;;;994.03;;
4616;SDS011;2321;42.704;23.384;2023-07-13T07:10:22;1128.77;;;994.90;;
4616;SDS011;2321;42.704;23.384;2023-07-13T07:12:49;1135.63;;;999.77;;
4616;SDS011;2321;42.704;23.384;2023-07-13T07:15:16;1073.37;;;907.80;;
4616;SDS011;2321;42.704;23.384;2023-07-13T07:17:44;1101.43;;;972.90;;
4616;SDS011;2321;42.704;23.384;2023-07-13T07:20:11;1162.33;;;999.90;;
4616;SDS011;2321;42.704;23.384;2023-07-13T07:22:40;1056.53;;;902.80;;
4616;SDS011;2321;42.704;23.384;2023-07-13T07:25:07;1097.70;;;976.93;;
4616;SDS011;2321;42.704;23.384;2023-07-13T07:27:34;1083.20;;;960.80;;
4616;SDS011;2321;42.704;23.384;2023-07-13T07:30:01;1092.47;;;961.60;;
4616;SDS011;2321;42.704;23.384;2023-07-13T07:32:28;1057.13;;;912.40;;
4616;SDS011;2321;42.704;23.384;2023-07-13T07:34:56;1051.57;;;898.60;;
4616;SDS011;2321;42.704;23.384;2023-07-13T07:37:23;1057.90;;;920.77;;
4616;SDS011;2321;42.704;23.384;2023-07-13T07:39:52;1055.23;;;908.73;;
4616;SDS011;2321;42.704;23.384;2023-07-13T07:42:19;1112.27;;;990.13;;
4616;SDS011;2321;42.704;23.384;2023-07-13T07:44:46;1058.77;;;921.63;;
4616;SDS011;2321;42.704;23.384;2023-07-13T07:47:13;1127.23;;;997.97;;
4616;SDS011;2321;42.704;23.384;2023-07-13T07:49:40;1112.43;;;990.27;;
4616;SDS011;2321;42.704;23.384;2023-07-13T07:52:07;1052.63;;;923.13;;
4616;SDS011;2321;42.704;23.384;2023-07-13T07:54:34;1121.50;;;996.00;;
4616;SDS011;2321;42.704;23.384;2023-07-13T07:57:02;1057.73;;;927.60;;
4616;SDS011;2321;42.704;23.384;2023-07-13T07:59:29;1097.90;;;978.40;;
4616;SDS011;2321;42.704;23.384;2023-07-13T08:01:56;1123.40;;;996.57;;
4616;SDS011;2321;42.704;23.384;2023-07-13T08:04:23;1099.13;;;979.20;;
4616;SDS011;2321;42.704;23.384;2023-07-13T08:06:50;1115.80;;;992.60;;
4616;SDS011;2321;42.704;23.384;2023-07-13T08:09:17;1153.60;;;999.90;;
4616;SDS011;2321;42.704;23.384;2023-07-13T08:11:44;1125.97;;;995.97;;
4616;SDS011;2321;42.704;23.384;2023-07-13T08:14:12;1140.47;;;999.90;;
4616;SDS011;2321;42.704;23.384;2023-07-13T08:16:39;1124.00;;;996.80;;
4616;SDS011;2321;42.704;23.384;2023-07-13T08:19:06;1131.50;;;999.33;;
4616;SDS011;2321;42.704;23.384;2023-07-13T08:21:33;1150.17;;;999.90;;
4616;SDS011;2321;42.704;23.384;2023-07-13T08:24:00;1137.33;;;999.90;;
4616;SDS011;2321;42.704;23.384;2023-07-13T08:26:27;1140.53;;;999.90;;
4616;SDS011;2321;42.704;23.384;2023-07-13T08:28:54;1139.83;;;999.90;;
4616;SDS011;2321;42.704;23.384;2023-07-13T08:31:22;1188.90;;;999.90;;
4616;SDS011;2321;42.704;23.384;2023-07-13T08:33:49;1074.50;;;957.07;;
4616;SDS011;2321;42.704;23.384;2023-07-13T08:36:16;1129.00;;;998.83;;
4616;SDS011;2321;42.704;23.384;2023-07-13T08:38:43;1139.70;;;999.90;;
4616;SDS011;2321;42.704;23.384;2023-07-13T08:41:11;1135.00;;;999.90;;
4616;SDS011;2321;42.704;23.384;2023-07-13T08:43:40;1123.93;;;997.00;;
4616;SDS011;2321;42.704;23.384;2023-07-13T08:46:10;1168.23;;;999.90;;
4616;SDS011;2321;42.704;23.384;2023-07-13T08:48:43;1144.40;;;999.90;;
4616;SDS011;2321;42.704;23.384;2023-07-13T08:51:17;1200.53;;;999.90;;
4616;SDS011;2321;42.704;23.384;2023-07-13T08:53:54;1149.60;;;999.90;;
4616;SDS011;2321;42.704;23.384;2023-07-13T08:56:27;1091.97;;;973.00;;
4616;SDS011;2321;42.704;23.384;2023-07-13T08:58:56;1161.90;;;999.90;;
4616;SDS011;2321;42.704;23.384;2023-07-13T09:01:29;1129.37;;;999.90;;
4616;SDS011;2321;42.704;23.384;2023-07-13T09:04:03;1097.47;;;979.20;;
4616;SDS011;2321;42.704;23.384;2023-07-13T09:06:35;1092.53;;;973.97;;
4616;SDS011;2321;42.704;23.384;2023-07-13T09:09:15;1222.50;;;999.90;;
4616;SDS011;2321;42.704;23.384;2023-07-13T09:11:50;1213.90;;;999.90;;
4616;SDS011;2321;42.704;23.384;2023-07-13T09:14:30;1222.27;;;999.90;;
4616;SDS011;2321;42.704;23.384;2023-07-13T09:17:05;1142.53;;;999.90;;
4616;SDS011;2321;42.704;23.384;2023-07-13T09:19:39;1171.70;;;999.90;;
4616;SDS011;2321;42.704;23.384;2023-07-13T09:22:09;1110.27;;;990.00;;
4616;SDS011;2321;42.704;23.384;2023-07-13T09:24:49;1192.23;;;999.90;;
4616;SDS011;2321;42.704;23.384;2023-07-13T09:27:21;1122.47;;;996.17;;
4616;SDS011;2321;42.704;23.384;2023-07-13T09:29:52;1160.27;;;999.90;;
4616;SDS011;2321;42.704;23.384;2023-07-13T09:32:23;1169.20;;;999.90;;
4616;SDS011;2321;42.704;23.384;2023-07-13T09:34:53;1169.73;;;999.90;;
4616;SDS011;2321;42.704;23.384;2023-07-13T09:37:21;1225.00;;;999.90;;
4616;SDS011;2321;42.704;23.384;2023-07-13T09:39:54;1110.87;;;991.80;;
4616;SDS011;2321;42.704;23.384;2023-07-13T09:42:22;1109.97;;;991.47;;
4616;SDS011;2321;42.704;23.384;2023-07-13T09:44:52;1165.20;;;999.90;;
4616;SDS011;2321;42.704;23.384;2023-07-13T09:47:20;1132.60;;;999.40;;
4616;SDS011;2321;42.704;23.384;2023-07-13T09:49:55;1177.17;;;999.90;;
4616;SDS011;2321;42.704;23.384;2023-07-13T09:52:24;1190.70;;;999.90;;
4616;SDS011;2321;42.704;23.384;2023-07-13T09:54:52;1148.17;;;999.90;;
4616;SDS011;2321;42.704;23.384;2023-07-13T09:57:24;1155.27;;;999.90;;
4616;SDS011;2321;42.704;23.384;2023-07-13T09:59:53;1245.40;;;999.90;;
4616;SDS011;2321;42.704;23.384;2023-07-13T10:02:25;1246.43;;;999.90;;
4616;SDS011;2321;42.704;23.384;2023-07-13T10:04:59;1245.43;;;999.90;;
4616;SDS011;2321;42.704;23.384;2023-07-13T10:07:29;1159.03;;;999.90;;
4616;SDS011;2321;42.704;23.384;2023-07-13T10:09:57;1257.57;;;999.90;;
4616;SDS011;2321;42.704;23.384;2023-07-13T10:12:26;1159.63;;;999.90;;
4616;SDS011;2321;42.704;23.384;2023-07-13T10:14:56;1156.27;;;999.90;;
4616;SDS011;2321;42.704;23.384;2023-07-13T10:17:26;1253.37;;;999.90;;
4616;SDS011;2321;42.704;23.384;2023-07-13T10:19:59;1188.40;;;999.90;;
4616;SDS011;2321;42.704;23.384;2023-07-13T10:22:31;1213.67;;;999.90;;
4616;SDS011;2321;42.704;23.384;2023-07-13T10:25:08;1141.87;;;999.90;;
4616;SDS011;2321;42.704;23.384;2023-07-13T10:27:42;1176.60;;;999.90;;
4616;SDS011;2321;42.704;23.384;2023-07-13T10:30:11;1197.50;;;999.90;;
4616;SDS011;2321;42.704;23.384;2023-07-13T10:32:42;1120.33;;;998.17;;
4616;SDS011;2321;42.704;23.384;2023-07-13T10:35:11;1181.07;;;999.90;;
4616;SDS011;2321;42.704;23.384;2023-07-13T10:37:42;1137.73;;;999.90;;
4616;SDS011;2321;42.704;23.384;2023-07-13T10:40:16;1174.93;;;999.90;;
4616;SDS011;2321;42.704;23.384;2023-07-13T10:42:49;1231.93;;;999.90;;
4616;SDS011;2321;42.704;23.384;2023-07-13T10:45:18;1147.40;;;999.90;;
4616;SDS011;2321;42.704;23.384;2023-07-13T10:47:47;1154.07;;;999.90;;
4616;SDS011;2321;42.704;23.384;2023-07-13T10:50:20;1160.60;;;999.90;;
4616;SDS011;2321;42.704;23.384;2023-07-13T10:52:50;1164.10;;;999.90;;
4616;SDS011;2321;42.704;23.384;2023-07-13T10:55:36;1153.30;;;999.90;;
4616;SDS011;2321;42.704;23.384;2023-07-13T10:58:11;1189.53;;;999.90;;
4616;SDS011;2321;42.704;23.384;2023-07-13T11:00:44;1193.90;;;999.90;;
4616;SDS011;2321;42.704;23.384;2023-07-13T11:03:15;1241.43;;;999.90;;
4616;SDS011;2321;42.704;23.384;2023-07-13T11:05:48;1206.53;;;999.90;;
4616;SDS011;2321;42.704;23.384;2023-07-13T11:08:19;1210.20;;;999.90;;
4616;SDS011;2321;42.704;23.384;2023-07-13T11:10:50;1260.60;;;999.90;;
4616;SDS011;2321;42.704;23.384;2023-07-13T11:16:12;1241.70;;;999.90;;
4616;SDS011;2321;42.704;23.384;2023-07-13T11:18:39;1161.20;;;999.90;;
4616;SDS011;2321;42.704;23.384;2023-07-13T11:21:17;1198.10;;;999.90;;
4616;SDS011;2321;42.704;23.384;2023-07-13T11:23:51;1253.97;;;999.90;;
4616;SDS011;2321;42.704;23.384;2023-07-13T11:26:39;1161.83;;;999.90;;
4616;SDS011;2321;42.704;23.384;2023-07-13T11:29:08;1258.20;;;999.90;;
4616;SDS011;2321;42.704;23.384;2023-07-13T11:31:51;1167.33;;;999.90;;
4616;SDS011;2321;42.704;23.384;2023-07-13T11:34:21;1207.37;;;999.90;;
4616;SDS011;2321;42.704;23.384;2023-07-13T11:36:55;1255.00;;;999.90;;
4616;SDS011;2321;42.704;23.384;2023-07-13T11:39:24;1240.73;;;999.90;;
4616;SDS011;2321;42.704;23.384;2023-07-13T11:41:56;1248.23;;;999.90;;
4616;SDS011;2321;42.704;23.384;2023-07-13T11:44:26;1249.50;;;999.90;;
4616;SDS011;2321;42.704;23.384;2023-07-13T11:46:55;1161.23;;;999.90;;
4616;SDS011;2321;42.704;23.384;2023-07-13T11:49:25;1152.67;;;999.90;;
4616;SDS011;2321;42.704;23.384;2023-07-13T11:51:57;1246.77;;;999.90;;
4616;SDS011;2321;42.704;23.384;2023-07-13T11:54:26;1216.90;;;999.90;;
4616;SDS011;2321;42.704;23.384;2023-07-13T11:56:58;1240.83;;;999.90;;
4616;SDS011;2321;42.704;23.384;2023-07-13T11:59:28;1211.10;;;999.90;;
4616;SDS011;2321;42.704;23.384;2023-07-13T12:01:57;1177.37;;;999.90;;
4616;SDS011;2321;42.704;23.384;2023-07-13T12:04:25;1168.47;;;999.90;;
4616;SDS011;2321;42.704;23.384;2023-07-13T12:06:58;1161.07;;;999.90;;
4616;SDS011;2321;42.704;23.384;2023-07-13T12:09:31;1204.77;;;999.90;;
4616;SDS011;2321;42.704;23.384;2023-07-13T12:12:02;1217.37;;;999.90;;
4616;SDS011;2321;42.704;23.384;2023-07-13T12:14:29;1202.20;;;999.90;;
4616;SDS011;2321;42.704;23.384;2023-07-13T12:17:00;1171.23;;;999.90;;
4616;SDS011;2321;42.704;23.384;2023-07-13T12:19:27;1252.97;;;999.90;;
4616;SDS011;2321;42.704;23.384;2023-07-13T12:21:55;1196.90;;;999.90;;
4616;SDS011;2321;42.704;23.384;2023-07-13T12:24:25;1198.40;;;999.90;;
4616;SDS011;2321;42.704;23.384;2023-07-13T12:26:54;1253.50;;;999.90;;
4616;SDS011;2321;42.704;23.384;2023-07-13T12:29:25;1258.10;;;999.90;;
4616;SDS011;2321;42.704;23.384;2023-07-13T12:31:52;1198.83;;;999.90;;
4616;SDS011;2321;42.704;23.384;2023-07-13T12:34:21;1246.13;;;999.90;;
4616;SDS011;2321;42.704;23.384;2023-07-13T12:36:51;1157.87;;;999.90;;
4616;SDS011;2321;42.704;23.384;2023-07-13T12:39:21;1175.50;;;999.90;;
4616;SDS011;2321;42.704;23.384;2023-07-13T12:41:51;1206.93;;;999.90;;
4616;SDS011;2321;42.704;23.384;2023-07-13T12:44:22;1251.03;;;999.90;;
4616;SDS011;2321;42.704;23.384;2023-07-13T12:46:54;1163.20;;;999.90;;
4616;SDS011;2321;42.704;23.384;2023-07-13T12:49:24;1147.40;;;999.90;;
4616;SDS011;2321;42.704;23.384;2023-07-13T12:51:57;1164.93;;;999.90;;
4616;SDS011;2321;42.704;23.384;2023-07-13T12:54:27;1191.90;;;999.90;;
4616;SDS011;2321;42.704;23.384;2023-07-13T12:56:55;1248.30;;;999.90;;
4616;SDS011;2321;42.704;23.384;2023-07-13T12:59:24;1255.83;;;999.90;;
4616;SDS011;2321;42.704;23.384;2023-07-13T13:01:55;1189.10;;;999.90;;
4616;SDS011;2321;42.704;23.384;2023-07-13T13:04:22;1235.83;;;999.90;;
4616;SDS011;2321;42.704;23.384;2023-07-13T13:07:00;1245.60;;;999.90;;
4616;SDS011;2321;42.704;23.384;2023-07-13T13:09:29;1240.73;;;999.90;;
4616;SDS011;2321;42.704;23.384;2023-07-13T13:11:56;1252.73;;;999.90;;
4616;SDS011;2321;42.704;23.384;2023-07-13T13:14:23;1202.53;;;999.90;;
4616;SDS011;2321;42.704;23.384;2023-07-13T13:16:50;1195.77;;;999.90;;
4616;SDS011;2321;42.704;23.384;2023-07-13T13:19:20;1257.47;;;999.90;;
4616;SDS011;2321;42.704;23.384;2023-07-13T13:21:48;1185.90;;;999.90;;
4616;SDS011;2321;42.704;23.384;2023-07-13T13:24:18;1255.30;;;999.90;;
4616;SDS011;2321;42.704;23.384;2023-07-13T13:26:47;1142.27;;;999.90;;
4616;SDS011;2321;42.704;23.384;2023-07-13T13:29:16;1182.50;;;999.90;;
4616;SDS011;2321;42.704;23.384;2023-07-13T13:31:45;1162.37;;;999.90;;
4616;SDS011;2321;42.704;23.384;2023-07-13T13:34:13;1169.90;;;999.90;;
4616;SDS011;2321;42.704;23.384;2023-07-13T13:36:41;1250.43;;;999.90;;
4616;SDS011;2321;42.704;23.384;2023-07-13T13:39:18;1185.93;;;999.90;;
4616;SDS011;2321;42.704;23.384;2023-07-13T13:41:49;1199.47;;;999.90;;
4616;SDS011;2321;42.704;23.384;2023-07-13T13:44:17;1258.00;;;999.90;;
4616;SDS011;2321;42.704;23.384;2023-07-13T13:46:45;1191.90;;;999.90;;
4616;SDS011;2321;42.704;23.384;2023-07-13T13:49:14;1157.43;;;999.90;;
4616;SDS011;2321;42.704;23.384;2023-07-13T13:51:43;1167.57;;;999.90;;
4616;SDS011;2321;42.704;23.384;2023-07-13T13:54:10;1190.13;;;999.90;;
4616;SDS011;2321;42.704;23.384;2023-07-13T13:56:40;1156.97;;;999.90;;
4616;SDS011;2321;42.704;23.384;2023-07-13T13:59:09;1136.90;;;999.90;;
4616;SDS011;2321;42.704;23.384;2023-07-13T14:01:36;1245.03;;;999.90;;
4616;SDS011;2321;42.704;23.384;2023-07-13T14:04:04;1211.73;;;999.90;;
4616;SDS011;2321;42.704;23.384;2023-07-13T14:06:33;1242.63;;;999.90;;
4616;SDS011;2321;42.704;23.384;2023-07-13T14:09:00;1185.90;;;999.90;;
4616;SDS011;2321;42.704;23.384;2023-07-13T14:11:28;1226.97;;;999.90;;